Time;durP1;ratioP1;P1;durP2;ratioP2;P2;SDS_P1;SDS_P2;PMS_P1;PMS_P2;Temp;Humidity;BMP_temperature;BMP_pressure;BME280_temperature;BME280_humidity;BME280_pressure;Samples;Min_cycle;Max_cycle;Signal;HPM_P1;HPM_P2
2022/03/10 00:02:09;;;;;;;53.80;28.92;;;5.60;99.90;;;;;;5029761;28;20357;-78
2022/03/10 00:04:35;;;;;;;56.97;28.80;;;5.60;99.90;;;;;;5037456;28;20037;-78
2022/03/10 00:07:04;;;;;;;54.03;29.90;;;5.50;99.90;;;;;;5041988;28;20503;-78
2022/03/10 00:09:33;;;;;;;48.45;28.30;;;5.50;99.90;;;;;;5044804;28;20040;-79
2022/03/10 00:11:59;;;;;;;43.75;25.15;;;5.50;99.90;;;;;;5023596;28;20017;-79
2022/03/10 00:14:25;;;;;;;46.97;25.95;;;5.40;99.90;;;;;;5036320;28;20063;-78
2022/03/10 00:16:51;;;;;;;42.85;24.48;;;5.40;99.90;;;;;;5032407;28;20057;-79
2022/03/10 00:19:17;;;;;;;44.33;25.58;;;5.30;99.90;;;;;;5030160;28;20037;-79
2022/03/10 00:21:43;;;;;;;49.47;27.15;;;5.30;99.90;;;;;;5035453;28;20071;-78
2022/03/10 00:24:09;;;;;;;49.17;26.05;;;5.30;99.90;;;;;;5030329;28;20026;-78
2022/03/10 00:26:37;;;;;;;46.88;24.90;;;5.30;99.90;;;;;;5023598;28;20091;-79
2022/03/10 00:29:03;;;;;;;50.30;26.92;;;5.20;99.90;;;;;;5030318;28;20021;-79
2022/03/10 00:31:29;;;;;;;47.08;26.92;;;5.10;99.90;;;;;;5037269;28;20462;-78
2022/03/10 00:33:54;;;;;;;46.83;26.80;;;5.00;99.90;;;;;;5032097;28;20044;-79
2022/03/10 00:36:20;;;;;;;51.28;29.02;;;5.00;99.90;;;;;;5035740;28;20030;-78
2022/03/10 00:38:45;;;;;;;46.85;25.65;;;5.00;99.90;;;;;;5026406;28;20037;-78
2022/03/10 00:41:11;;;;;;;49.33;29.10;;;4.90;99.90;;;;;;5040217;28;20043;-79
2022/03/10 00:43:37;;;;;;;57.83;31.73;;;4.90;99.90;;;;;;5027183;28;20022;-78
2022/03/10 00:46:02;;;;;;;51.83;29.50;;;4.90;99.90;;;;;;5039931;28;20041;-79
2022/03/10 00:48:28;;;;;;;54.35;30.60;;;4.90;99.90;;;;;;5027989;28;20036;-77
2022/03/10 00:50:54;;;;;;;51.90;26.75;;;4.80;99.90;;;;;;5036689;28;20037;-77
2022/03/10 00:53:20;;;;;;;54.60;28.48;;;4.90;99.90;;;;;;5030712;28;20022;-78
2022/03/10 00:55:45;;;;;;;55.88;31.63;;;4.90;99.90;;;;;;5031618;28;20030;-79
2022/03/10 00:58:11;;;;;;;51.88;30.35;;;4.70;99.90;;;;;;5026583;28;20087;-79
2022/03/10 01:00:37;;;;;;;49.50;27.42;;;4.80;99.90;;;;;;5029076;28;20510;-78
2022/03/10 01:03:05;;;;;;;54.83;29.63;;;4.80;99.90;;;;;;5028542;28;20108;-79
2022/03/10 01:05:30;;;;;;;47.20;27.50;;;4.80;99.90;;;;;;5029557;28;20037;-78
2022/03/10 01:07:56;;;;;;;49.33;27.38;;;4.60;99.90;;;;;;5038448;28;20469;-79
2022/03/10 01:10:22;;;;;;;53.00;28.67;;;4.60;99.90;;;;;;5030704;28;20078;-77
2022/03/10 01:12:48;;;;;;;48.80;29.30;;;4.60;99.90;;;;;;5037670;28;20075;-79
2022/03/10 01:15:25;;;;;;;48.88;28.08;;;4.60;99.90;;;;;;5029919;28;20036;-79
2022/03/10 01:17:51;;;;;;;48.47;25.90;;;4.60;99.90;;;;;;5031872;28;20057;-75
2022/03/10 01:20:18;;;;;;;54.85;27.58;;;4.60;99.90;;;;;;5034801;28;20040;-79
2022/03/10 01:22:43;;;;;;;52.15;28.20;;;4.60;99.90;;;;;;5027555;28;20032;-79
2022/03/10 01:25:10;;;;;;;50.90;28.85;;;4.60;99.90;;;;;;5037432;28;20065;-79
2022/03/10 01:27:36;;;;;;;53.55;29.95;;;4.50;99.90;;;;;;5039104;28;20044;-79
2022/03/10 01:30:03;;;;;;;51.10;26.75;;;4.50;99.90;;;;;;5033194;28;20021;-79
2022/03/10 01:32:28;;;;;;;52.22;29.55;;;4.40;99.90;;;;;;5029411;28;20033;-78
2022/03/10 01:34:54;;;;;;;49.97;27.67;;;4.40;99.90;;;;;;5028159;28;20462;-78
2022/03/10 01:37:20;;;;;;;45.80;26.35;;;4.40;99.90;;;;;;5026786;28;20026;-77
2022/03/10 01:39:46;;;;;;;48.33;27.20;;;4.40;99.90;;;;;;5030183;28;20068;-80
2022/03/10 01:42:12;;;;;;;51.90;28.98;;;4.40;99.90;;;;;;5028979;28;20100;-79
2022/03/10 01:44:38;;;;;;;49.55;27.23;;;4.40;99.90;;;;;;5032854;28;20386;-77
2022/03/10 01:47:07;;;;;;;51.78;28.60;;;4.40;99.90;;;;;;5043719;28;20025;-79
2022/03/10 01:49:34;;;;;;;55.83;29.83;;;4.40;99.90;;;;;;5033557;28;20036;-78
2022/03/10 01:52:00;;;;;;;52.38;28.75;;;4.40;99.90;;;;;;5027046;28;20029;-79
2022/03/10 01:54:27;;;;;;;54.78;30.02;;;4.40;99.90;;;;;;5035937;28;20112;-79
2022/03/10 01:56:53;;;;;;;52.05;30.10;;;4.40;99.90;;;;;;5046730;28;20025;-79
2022/03/10 01:59:19;;;;;;;55.95;28.42;;;4.40;99.90;;;;;;5028855;28;20132;-80
2022/03/10 02:01:45;;;;;;;55.17;28.80;;;4.40;99.90;;;;;;5037038;28;20458;-79
2022/03/10 02:04:12;;;;;;;52.53;30.02;;;4.30;99.90;;;;;;5021748;28;20037;-79
2022/03/10 02:06:38;;;;;;;58.80;31.40;;;4.40;99.90;;;;;;5037434;28;20024;-79
2022/03/10 02:11:52;;;;;;;53.58;27.38;;;4.30;99.90;;;;;;5040873;28;20060;-78
2022/03/10 02:17:20;;;;;;;57.70;28.33;;;4.30;99.90;;;;;;5025825;28;20078;-79
2022/03/10 02:19:57;;;;;;;51.40;27.88;;;4.20;99.90;;;;;;5024341;28;20034;-79
2022/03/10 02:22:25;;;;;;;52.58;28.35;;;4.20;99.90;;;;;;5028627;28;20037;-78
2022/03/10 02:24:52;;;;;;;53.08;29.23;;;4.20;99.90;;;;;;5022552;28;20109;-80
2022/03/10 02:27:23;;;;;;;54.65;27.52;;;4.10;99.90;;;;;;5027725;28;20060;-80
2022/03/10 02:29:51;;;;;;;53.55;29.15;;;4.00;99.90;;;;;;5037583;28;20032;-79
2022/03/10 02:32:18;;;;;;;50.55;27.23;;;4.10;99.90;;;;;;5024919;28;20075;-79
2022/03/10 02:34:45;;;;;;;58.13;30.77;;;4.00;99.90;;;;;;5033825;28;20384;-77
2022/03/10 02:37:11;;;;;;;55.85;29.25;;;4.00;99.90;;;;;;5033670;28;20037;-79
2022/03/10 02:39:38;;;;;;;57.97;31.83;;;4.00;99.90;;;;;;5039680;28;20485;-80
2022/03/10 02:42:04;;;;;;;58.13;32.13;;;4.00;99.90;;;;;;5030232;28;20048;-79
2022/03/10 02:44:30;;;;;;;58.13;31.05;;;4.00;99.90;;;;;;5031771;28;20033;-77
2022/03/10 02:46:55;;;;;;;54.58;30.15;;;4.00;99.90;;;;;;5040715;28;20537;-79
2022/03/10 02:49:21;;;;;;;52.92;29.80;;;4.00;99.90;;;;;;5029722;28;20049;-79
2022/03/10 02:51:47;;;;;;;57.80;29.75;;;4.00;99.90;;;;;;5035135;28;20033;-79
2022/03/10 02:54:12;;;;;;;54.13;30.55;;;4.00;99.90;;;;;;5034210;28;20082;-80
2022/03/10 02:56:38;;;;;;;50.15;27.35;;;4.00;99.90;;;;;;5039919;28;20057;-78
2022/03/10 02:59:04;;;;;;;51.08;27.15;;;4.00;99.90;;;;;;5047399;28;20057;-79
2022/03/10 03:01:30;;;;;;;55.72;27.67;;;4.00;99.90;;;;;;5040451;28;20022;-79
2022/03/10 03:03:56;;;;;;;50.03;25.73;;;4.00;99.90;;;;;;5025419;28;20022;-79
2022/03/10 03:06:22;;;;;;;46.05;25.63;;;4.00;99.90;;;;;;5043952;28;20021;-79
2022/03/10 03:08:48;;;;;;;54.10;28.05;;;3.90;99.90;;;;;;5030873;28;20108;-79
2022/03/10 03:11:14;;;;;;;54.03;28.55;;;3.90;99.90;;;;;;5034403;28;20497;-79
2022/03/10 03:13:40;;;;;;;54.72;28.63;;;3.90;99.90;;;;;;5034975;28;20100;-79
2022/03/10 03:16:06;;;;;;;46.75;27.38;;;3.90;99.90;;;;;;5038740;28;20029;-80
2022/03/10 03:18:32;;;;;;;50.70;27.17;;;3.80;99.90;;;;;;5046628;28;20474;-79
2022/03/10 03:20:58;;;;;;;55.80;29.23;;;3.80;99.90;;;;;;5030713;28;20041;-78
2022/03/10 03:23:24;;;;;;;50.55;26.80;;;3.80;99.90;;;;;;5031941;28;20022;-79
2022/03/10 03:25:51;;;;;;;57.47;28.63;;;3.80;99.90;;;;;;5045623;28;20029;-78
2022/03/10 03:28:17;;;;;;;50.97;28.85;;;3.80;99.90;;;;;;5047867;28;20380;-80
2022/03/10 03:30:43;;;;;;;52.20;28.63;;;3.80;99.90;;;;;;5040348;28;20041;-78
2022/03/10 03:33:09;;;;;;;53.05;28.30;;;3.80;99.90;;;;;;5031844;28;20075;-79
2022/03/10 03:35:34;;;;;;;52.45;28.05;;;3.80;99.90;;;;;;5041945;28;20036;-79
2022/03/10 03:38:00;;;;;;;53.58;29.27;;;3.70;99.90;;;;;;5036693;28;20068;-79
2022/03/10 03:40:26;;;;;;;49.47;28.63;;;3.80;99.90;;;;;;5028062;28;20121;-79
2022/03/10 03:42:52;;;;;;;55.97;28.92;;;3.80;99.90;;;;;;5043971;28;20103;-79
2022/03/10 03:45:17;;;;;;;52.50;29.27;;;3.80;99.90;;;;;;5032862;28;20033;-79
2022/03/10 03:47:43;;;;;;;54.83;29.05;;;3.90;99.90;;;;;;5032647;28;20025;-78
2022/03/10 03:50:09;;;;;;;54.08;28.40;;;3.80;99.90;;;;;;5034514;28;20037;-78
2022/03/10 03:52:35;;;;;;;53.72;29.80;;;3.80;99.90;;;;;;5031639;28;20048;-79
2022/03/10 03:55:01;;;;;;;51.88;27.52;;;3.70;99.90;;;;;;5042120;28;20104;-79
2022/03/10 03:57:27;;;;;;;46.75;25.30;;;3.80;99.90;;;;;;5041523;28;20048;-76
2022/03/10 03:59:53;;;;;;;49.20;26.75;;;3.70;99.90;;;;;;5041459;28;20488;-80
2022/03/10 04:02:18;;;;;;;53.58;28.08;;;3.70;99.90;;;;;;5041464;28;20111;-79
2022/03/10 04:04:44;;;;;;;45.80;25.65;;;3.60;99.90;;;;;;5041043;28;20427;-79
2022/03/10 04:07:10;;;;;;;51.92;28.23;;;3.60;99.90;;;;;;5046791;28;20057;-78
2022/03/10 04:09:35;;;;;;;49.63;25.35;;;3.60;99.90;;;;;;5039582;28;20104;-79
2022/03/10 04:12:02;;;;;;;48.78;25.80;;;3.70;99.90;;;;;;5040109;28;20492;-80
2022/03/10 04:14:27;;;;;;;54.70;27.08;;;3.60;99.90;;;;;;5032247;28;20025;-79
2022/03/10 04:16:53;;;;;;;53.08;28.25;;;3.60;99.90;;;;;;5035172;28;20022;-80
2022/03/10 04:19:18;;;;;;;56.85;28.67;;;3.50;99.90;;;;;;5043248;28;20052;-80
2022/03/10 04:21:44;;;;;;;51.13;28.42;;;3.60;99.90;;;;;;5045211;28;20096;-80
2022/03/10 04:24:10;;;;;;;54.28;29.30;;;3.60;99.90;;;;;;5040401;28;20104;-80
2022/03/10 04:26:36;;;;;;;53.75;29.00;;;3.60;99.90;;;;;;5045177;28;20025;-78
2022/03/10 04:29:01;;;;;;;54.05;29.20;;;3.60;99.90;;;;;;5050291;28;20466;-79
2022/03/10 04:31:27;;;;;;;50.83;27.77;;;3.60;99.90;;;;;;5034799;28;20025;-79
2022/03/10 04:33:53;;;;;;;56.22;29.05;;;3.60;99.90;;;;;;5038517;28;20041;-79
2022/03/10 04:36:18;;;;;;;56.05;28.42;;;3.60;99.90;;;;;;5054553;28;20033;-79
2022/03/10 04:38:44;;;;;;;50.13;27.88;;;3.60;99.90;;;;;;5043354;28;20049;-78
2022/03/10 04:41:10;;;;;;;55.17;26.55;;;3.60;99.90;;;;;;5032486;28;20390;-79
2022/03/10 04:43:36;;;;;;;46.70;24.85;;;3.50;99.90;;;;;;5031110;28;20021;-78
2022/03/10 04:46:03;;;;;;;57.25;28.42;;;3.50;99.90;;;;;;5037376;28;20087;-79
2022/03/10 04:48:29;;;;;;;53.80;28.38;;;3.50;99.90;;;;;;5032479;28;20073;-80
2022/03/10 04:50:55;;;;;;;55.47;28.25;;;3.50;99.90;;;;;;5030648;28;20104;-78
2022/03/10 04:53:21;;;;;;;56.00;27.50;;;3.50;99.90;;;;;;5039624;28;20104;-80
2022/03/10 04:55:46;;;;;;;56.83;29.83;;;3.50;99.90;;;;;;5025964;28;20048;-79
2022/03/10 04:58:12;;;;;;;52.05;28.60;;;3.50;99.90;;;;;;5042838;28;20076;-78
2022/03/10 05:00:38;;;;;;;51.08;27.23;;;3.50;99.90;;;;;;5029679;28;20037;-79
2022/03/10 05:03:03;;;;;;;49.17;26.00;;;3.50;99.90;;;;;;5037981;28;20025;-79
2022/03/10 05:05:29;;;;;;;51.80;26.02;;;3.40;99.90;;;;;;5036244;28;20428;-79
2022/03/10 05:07:55;;;;;;;54.60;27.52;;;3.40;99.90;;;;;;5044029;28;20017;-78
2022/03/10 05:10:21;;;;;;;45.97;23.92;;;3.40;99.90;;;;;;5039285;28;20056;-78
2022/03/10 05:12:54;;;;;;;48.53;25.75;;;3.30;99.90;;;;;;5038884;28;20025;-79
2022/03/10 05:15:21;;;;;;;54.20;26.80;;;3.30;99.90;;;;;;5035858;28;20093;-80
2022/03/10 05:17:48;;;;;;;47.20;24.33;;;3.30;99.90;;;;;;5027766;28;20383;-78
2022/03/10 05:20:14;;;;;;;47.13;24.08;;;3.30;99.90;;;;;;5026552;28;20382;-78
2022/03/10 05:22:47;;;;;;;48.97;26.77;;;3.40;99.90;;;;;;5035488;28;20029;-79
2022/03/10 05:25:14;;;;;;;45.65;25.40;;;3.40;99.90;;;;;;5019753;28;20035;-78
2022/03/10 05:27:40;;;;;;;48.35;27.63;;;3.30;99.90;;;;;;5036643;28;20033;-79
2022/03/10 05:30:07;;;;;;;50.90;24.65;;;3.30;99.90;;;;;;5028807;28;20109;-79
2022/03/10 05:32:32;;;;;;;56.53;27.60;;;3.30;99.90;;;;;;5034336;28;20031;-80
2022/03/10 05:35:00;;;;;;;57.42;28.77;;;3.30;99.90;;;;;;5035388;28;20037;-79
2022/03/10 05:37:26;;;;;;;57.08;26.73;;;3.20;99.90;;;;;;5038548;28;20127;-77
2022/03/10 05:39:51;;;;;;;54.70;27.50;;;3.10;99.90;;;;;;5040928;28;20452;-76
2022/03/10 05:42:17;;;;;;;54.72;26.70;;;3.10;99.90;;;;;;5028369;28;20021;-79
2022/03/10 05:44:43;;;;;;;58.40;28.25;;;3.10;99.90;;;;;;5029504;28;20029;-79
2022/03/10 05:47:09;;;;;;;52.40;26.02;;;3.10;99.90;;;;;;5027024;28;20018;-79
2022/03/10 05:49:35;;;;;;;54.88;26.55;;;3.10;99.90;;;;;;5034283;28;20029;-77
2022/03/10 05:52:01;;;;;;;53.08;28.15;;;3.10;99.90;;;;;;5038548;28;20028;-80
2022/03/10 05:54:27;;;;;;;54.50;26.73;;;3.00;99.90;;;;;;5030654;28;20026;-79
2022/03/10 05:56:52;;;;;;;54.40;25.85;;;3.00;99.90;;;;;;5041711;28;20044;-79
2022/03/10 05:59:19;;;;;;;56.53;26.02;;;3.00;99.90;;;;;;5029511;28;20394;-78
2022/03/10 06:01:49;;;;;;;53.95;27.50;;;2.90;99.90;;;;;;5034971;28;20025;-79
2022/03/10 06:04:15;;;;;;;52.88;28.20;;;2.90;99.90;;;;;;5028524;28;20034;-78
2022/03/10 06:06:43;;;;;;;56.47;29.25;;;3.00;99.90;;;;;;5032411;28;20025;-80
2022/03/10 06:09:12;;;;;;;51.42;27.33;;;3.00;99.90;;;;;;5039665;28;20458;-78
2022/03/10 06:11:37;;;;;;;49.10;26.25;;;3.00;99.90;;;;;;5029338;28;20478;-79
2022/03/10 06:14:03;;;;;;;55.20;26.60;;;3.00;99.90;;;;;;5030495;28;20048;-79
2022/03/10 06:16:29;;;;;;;52.40;28.02;;;3.00;99.90;;;;;;5031259;28;20065;-79
2022/03/10 06:18:55;;;;;;;55.17;26.77;;;3.00;99.90;;;;;;5033988;28;20495;-79
2022/03/10 06:21:22;;;;;;;50.00;24.98;;;2.90;99.90;;;;;;5025381;28;20030;-79
2022/03/10 06:23:50;;;;;;;45.70;25.52;;;2.90;99.90;;;;;;5038785;28;20092;-79
2022/03/10 06:26:16;;;;;;;49.10;26.73;;;2.80;99.90;;;;;;5024032;28;20043;-78
2022/03/10 06:28:41;;;;;;;50.63;25.73;;;2.90;99.90;;;;;;5035578;28;20103;-80
2022/03/10 06:31:07;;;;;;;49.33;24.38;;;2.90;99.90;;;;;;5034998;28;20026;-79
2022/03/10 06:33:35;;;;;;;51.05;24.65;;;2.90;99.90;;;;;;5040662;28;20103;-79
2022/03/10 06:36:00;;;;;;;54.63;26.90;;;2.80;99.90;;;;;;5029814;28;20040;-79
2022/03/10 06:38:26;;;;;;;53.05;26.48;;;2.90;99.90;;;;;;5040806;28;20446;-79
2022/03/10 06:40:51;;;;;;;50.05;25.75;;;3.00;99.90;;;;;;5034953;28;20109;-78
2022/03/10 06:43:18;;;;;;;50.88;25.85;;;3.00;99.90;;;;;;5038108;28;20035;-77
2022/03/10 06:45:44;;;;;;;49.35;25.65;;;3.10;99.90;;;;;;5046394;28;20537;-77
2022/03/10 06:48:10;;;;;;;54.53;25.92;;;3.10;99.90;;;;;;5029981;28;20112;-79
2022/03/10 06:50:36;;;;;;;48.80;24.23;;;3.10;99.90;;;;;;5042130;28;20021;-79
2022/03/10 06:53:02;;;;;;;50.15;25.10;;;3.00;99.90;;;;;;5030048;28;20025;-79
2022/03/10 06:55:28;;;;;;;55.60;27.10;;;3.10;99.90;;;;;;5036966;28;20021;-79
2022/03/10 06:57:55;;;;;;;54.42;25.60;;;3.10;99.90;;;;;;5038216;28;20043;-79
2022/03/10 07:00:21;;;;;;;56.42;26.95;;;3.10;99.90;;;;;;5041890;28;20030;-79
2022/03/10 07:02:47;;;;;;;58.22;26.45;;;3.20;99.90;;;;;;5034260;28;20029;-79
2022/03/10 07:05:12;;;;;;;52.35;26.23;;;3.10;99.90;;;;;;5046110;28;20490;-78
2022/03/10 07:07:38;;;;;;;58.25;28.70;;;3.10;99.90;;;;;;5031542;28;20040;-79
2022/03/10 07:10:04;;;;;;;56.70;28.08;;;3.10;99.90;;;;;;5042496;28;20093;-79
2022/03/10 07:12:34;;;;;;;59.38;29.08;;;3.10;99.90;;;;;;5028263;28;20018;-80
2022/03/10 07:15:00;;;;;;;55.92;28.35;;;3.10;99.90;;;;;;5031116;28;20025;-79
2022/03/10 07:17:25;;;;;;;51.78;27.27;;;3.20;99.90;;;;;;5033150;28;20026;-79
2022/03/10 07:19:51;;;;;;;56.42;27.33;;;3.20;99.90;;;;;;5031184;28;20033;-76
2022/03/10 07:22:18;;;;;;;53.15;26.90;;;3.30;99.90;;;;;;5040998;28;20056;-76
2022/03/10 07:24:45;;;;;;;49.75;26.60;;;3.40;99.90;;;;;;5034219;28;20021;-76
2022/03/10 07:27:11;;;;;;;50.97;27.63;;;3.40;99.90;;;;;;5043850;28;20021;-77
2022/03/10 07:29:36;;;;;;;51.80;26.90;;;3.50;99.90;;;;;;5028452;28;20119;-78
2022/03/10 07:32:02;;;;;;;52.15;24.80;;;3.50;99.90;;;;;;5036637;28;20101;-86
2022/03/10 07:34:28;;;;;;;50.45;26.00;;;3.60;99.90;;;;;;5034722;28;20032;-81
2022/03/10 07:36:54;;;;;;;56.03;27.80;;;3.70;99.90;;;;;;5033756;28;20034;-84
2022/03/10 07:39:20;;;;;;;56.72;27.15;;;3.70;99.90;;;;;;5037982;28;20130;-78
2022/03/10 07:41:45;;;;;;;60.53;31.98;;;3.70;99.90;;;;;;5028716;28;20145;-77
2022/03/10 07:44:11;;;;;;;53.25;29.23;;;3.90;99.90;;;;;;5034040;28;20029;-77
2022/03/10 07:46:36;;;;;;;55.28;27.70;;;3.90;99.90;;;;;;5040558;28;20087;-76
2022/03/10 07:49:04;;;;;;;51.72;25.90;;;4.00;99.90;;;;;;5036957;28;20108;-77
2022/03/10 07:51:29;;;;;;;55.05;25.83;;;4.00;99.90;;;;;;5032790;28;20033;-77
2022/03/10 07:53:55;;;;;;;47.95;25.70;;;4.20;99.90;;;;;;5030140;28;20048;-76
2022/03/10 07:56:20;;;;;;;52.45;25.23;;;4.20;99.90;;;;;;5034085;28;20108;-76
2022/03/10 07:58:46;;;;;;;53.40;27.95;;;4.30;99.90;;;;;;5033597;28;20381;-76
2022/03/10 08:01:12;;;;;;;50.90;24.45;;;4.50;99.90;;;;;;5033680;28;20033;-77
2022/03/10 08:03:38;;;;;;;46.40;23.92;;;4.60;99.90;;;;;;5050406;28;20477;-77
2022/03/10 08:06:04;;;;;;;51.45;23.85;;;4.80;99.90;;;;;;5031781;28;20083;-78
2022/03/10 08:08:30;;;;;;;46.67;25.25;;;4.90;99.90;;;;;;5022233;28;20417;-76
2022/03/10 08:10:56;;;;;;;45.17;23.67;;;5.10;99.90;;;;;;5031456;28;20032;-80
2022/03/10 08:13:26;;;;;;;49.30;25.63;;;5.20;99.90;;;;;;5026798;28;20076;-77
2022/03/10 08:15:53;;;;;;;45.83;24.75;;;5.50;99.90;;;;;;5039459;28;20055;-79
2022/03/10 08:18:19;;;;;;;46.30;23.27;;;5.60;99.90;;;;;;5041651;28;20032;-78
2022/03/10 08:20:44;;;;;;;45.47;22.73;;;5.80;99.90;;;;;;5033240;28;20042;-83
2022/03/10 08:23:10;;;;;;;50.58;25.27;;;6.00;99.90;;;;;;5036326;28;20044;-79
2022/03/10 08:25:39;;;;;;;43.05;22.90;;;6.20;99.90;;;;;;5032631;28;20478;-82
2022/03/10 08:28:05;;;;;;;45.20;24.38;;;6.40;99.90;;;;;;5035564;28;20025;-81
2022/03/10 08:30:31;;;;;;;43.15;22.98;;;6.50;99.90;;;;;;5024766;28;20029;-80
2022/03/10 08:32:57;;;;;;;49.80;25.27;;;6.60;99.90;;;;;;5038752;28;20025;-81
2022/03/10 08:35:23;;;;;;;47.83;24.73;;;6.80;99.90;;;;;;5034458;28;20030;-78
2022/03/10 08:37:50;;;;;;;45.10;24.58;;;6.90;99.90;;;;;;5039067;28;20032;-81
2022/03/10 08:40:17;;;;;;;45.75;25.08;;;7.00;99.90;;;;;;5026884;28;20038;-82
2022/03/10 08:42:47;;;;;;;48.80;25.08;;;7.20;99.90;;;;;;5032332;28;20032;-80
2022/03/10 08:45:13;;;;;;;45.70;24.05;;;7.30;99.90;;;;;;5031124;28;20060;-80
2022/03/10 08:47:39;;;;;;;51.30;23.98;;;7.50;99.90;;;;;;5031776;28;20021;-80
2022/03/10 08:50:05;;;;;;;46.83;22.92;;;7.60;99.90;;;;;;5039933;28;20037;-80
2022/03/10 08:52:31;;;;;;;41.67;23.60;;;7.60;99.90;;;;;;5024843;28;20020;-80
2022/03/10 08:54:57;;;;;;;43.10;23.17;;;7.80;99.90;;;;;;5037823;28;20026;-81
2022/03/10 08:57:22;;;;;;;44.10;25.58;;;8.00;99.90;;;;;;5027414;28;20026;-81
2022/03/10 08:59:48;;;;;;;44.72;23.40;;;8.10;99.90;;;;;;5032874;28;20029;-81
2022/03/10 09:02:14;;;;;;;42.53;22.30;;;8.20;99.90;;;;;;5030203;28;20034;-81
2022/03/10 09:04:40;;;;;;;44.40;24.40;;;8.30;99.90;;;;;;5035711;28;20036;-81
2022/03/10 09:07:05;;;;;;;40.70;22.88;;;8.50;99.90;;;;;;5036854;28;20025;-80
2022/03/10 09:09:31;;;;;;;43.22;21.92;;;8.70;99.90;;;;;;5027186;28;20035;-79
2022/03/10 09:11:57;;;;;;;40.47;20.70;;;8.80;99.90;;;;;;5033269;28;20063;-80
2022/03/10 09:14:23;;;;;;;44.20;23.25;;;8.90;99.90;;;;;;5034749;28;20484;-81
2022/03/10 09:16:51;;;;;;;41.28;21.77;;;9.10;99.90;;;;;;5029628;28;20053;-81
2022/03/10 09:19:17;;;;;;;42.60;23.48;;;9.10;99.90;;;;;;5026705;28;20532;-81
2022/03/10 09:21:43;;;;;;;41.72;22.67;;;9.30;99.90;;;;;;5032369;28;20430;-81
2022/03/10 09:24:09;;;;;;;39.28;20.65;;;9.50;99.90;;;;;;5028883;28;20461;-81
2022/03/10 09:26:35;;;;;;;40.05;22.33;;;9.60;99.90;;;;;;5035716;28;20052;-81
2022/03/10 09:29:01;;;;;;;39.72;22.83;;;9.70;99.90;;;;;;5036368;28;20036;-80
2022/03/10 09:31:27;;;;;;;43.75;22.70;;;9.90;99.80;;;;;;5034937;28;20022;-80
2022/03/10 09:33:53;;;;;;;44.22;23.58;;;10.10;99.90;;;;;;5030074;28;20479;-80
2022/03/10 09:36:19;;;;;;;42.47;23.60;;;10.30;99.90;;;;;;5034078;28;20036;-80
2022/03/10 09:38:45;;;;;;;41.03;22.35;;;10.40;99.60;;;;;;5029601;28;20059;-80
2022/03/10 09:41:12;;;;;;;42.22;22.73;;;10.60;99.20;;;;;;5032413;28;20033;-81
2022/03/10 09:43:39;;;;;;;40.92;22.63;;;10.70;99.20;;;;;;5032310;28;20040;-78
2022/03/10 09:46:08;;;;;;;39.78;23.23;;;10.80;98.90;;;;;;5035502;28;20075;-80
2022/03/10 09:48:35;;;;;;;43.08;24.83;;;10.90;98.30;;;;;;5044885;28;20372;-80
2022/03/10 09:51:01;;;;;;;41.35;24.65;;;11.20;99.40;;;;;;5030650;28;20357;-80
2022/03/10 09:53:30;;;;;;;41.13;24.25;;;11.40;98.40;;;;;;5036799;28;20029;-79
2022/03/10 09:55:56;;;;;;;38.28;21.40;;;11.50;98.50;;;;;;5038602;28;20025;-80
2022/03/10 09:58:22;;;;;;;46.75;24.67;;;11.60;98.40;;;;;;5031809;28;20099;-80
2022/03/10 10:00:47;;;;;;;38.60;22.02;;;11.70;97.60;;;;;;5032524;28;20043;-80
2022/03/10 10:03:13;;;;;;;41.38;24.92;;;11.80;97.90;;;;;;5025727;28;20025;-79
2022/03/10 10:05:40;;;;;;;40.40;25.60;;;12.00;97.50;;;;;;5040289;28;20520;-82
2022/03/10 10:08:08;;;;;;;46.72;24.10;;;12.20;97.20;;;;;;5041558;28;22227;-82
2022/03/10 10:10:35;;;;;;;41.45;23.33;;;12.30;97.20;;;;;;5034810;28;20018;-81
2022/03/10 10:13:06;;;;;;;41.97;25.15;;;12.40;96.90;;;;;;5048473;28;20035;-82
2022/03/10 10:15:40;;;;;;;42.95;23.10;;;12.60;97.00;;;;;;5028135;28;20121;-84
2022/03/10 10:18:13;;;;;;;44.05;23.67;;;12.70;99.50;;;;;;5044645;28;20025;-82
2022/03/10 10:20:46;;;;;;;39.33;23.15;;;12.90;97.00;;;;;;5029407;28;20044;-84
2022/03/10 10:23:22;;;;;;;43.05;24.85;;;12.90;96.90;;;;;;5044312;28;20021;-83
2022/03/10 10:25:50;;;;;;;44.22;26.45;;;12.90;96.90;;;;;;5028765;28;20382;-85
2022/03/10 10:28:29;;;;;;;46.80;26.10;;;13.20;97.50;;;;;;5040777;28;20021;-83
2022/03/10 10:31:01;;;;;;;40.13;24.00;;;13.30;96.90;;;;;;5037264;28;20048;-84
2022/03/10 10:33:29;;;;;;;38.50;22.92;;;13.50;97.30;;;;;;5039432;28;20033;-84
2022/03/10 10:36:18;;;;;;;36.67;22.27;;;13.70;96.70;;;;;;5040107;28;20143;-86
2022/03/10 10:38:46;;;;;;;40.03;22.67;;;13.80;96.00;;;;;;5040495;28;20021;-85
2022/03/10 10:41:23;;;;;;;39.15;23.77;;;13.90;95.30;;;;;;5038279;28;20596;-86
2022/03/10 10:43:55;;;;;;;37.80;23.15;;;14.00;95.10;;;;;;5039073;28;20021;-85
2022/03/10 10:46:36;;;;;;;39.67;23.30;;;14.00;95.80;;;;;;5033912;28;20518;-85
2022/03/10 10:49:22;;;;;;;42.13;24.13;;;14.10;95.30;;;;;;5028958;28;20040;-83
2022/03/10 10:51:50;;;;;;;45.70;24.48;;;14.30;96.00;;;;;;5026353;28;20521;-82
2022/03/10 10:54:19;;;;;;;39.80;25.40;;;14.40;96.00;;;;;;5046132;28;20079;-83
2022/03/10 10:56:46;;;;;;;42.95;26.30;;;14.50;95.10;;;;;;5030934;28;20119;-84
2022/03/10 10:59:36;;;;;;;37.30;23.95;;;14.60;94.50;;;;;;5043523;28;20067;-83
2022/03/10 11:02:08;;;;;;;36.22;22.63;;;14.60;94.20;;;;;;5035141;28;20029;-78
2022/03/10 11:04:35;;;;;;;44.92;24.95;;;14.60;95.20;;;;;;5035346;28;20065;-83
2022/03/10 11:07:00;;;;;;;44.90;25.23;;;14.70;95.30;;;;;;5048592;28;20024;-81
2022/03/10 11:09:26;;;;;;;40.95;24.58;;;14.80;94.80;;;;;;5037430;28;20037;-83
2022/03/10 11:11:54;;;;;;;42.45;25.35;;;14.90;94.30;;;;;;5044151;28;20040;-85
2022/03/10 11:14:20;;;;;;;38.33;23.95;;;14.80;94.30;;;;;;5040838;28;20035;-83
2022/03/10 11:16:47;;;;;;;38.67;23.65;;;14.90;94.20;;;;;;5039059;28;20017;-84
2022/03/10 11:19:15;;;;;;;37.47;23.48;;;15.10;94.20;;;;;;5038001;28;20187;-84
2022/03/10 11:22:25;;;;;;;38.00;23.10;;;15.00;94.10;;;;;;5040743;28;20048;-84
2022/03/10 11:25:09;;;;;;;37.97;25.02;;;15.10;94.00;;;;;;5029928;28;20033;-89
2022/03/10 11:27:39;;;;;;;38.33;23.75;;;15.20;94.10;;;;;;5043981;28;20060;-86
2022/03/10 11:30:06;;;;;;;38.28;23.20;;;15.40;93.90;;;;;;5036331;28;20025;-90
2022/03/10 11:32:33;;;;;;;35.83;22.65;;;15.60;94.20;;;;;;5036933;28;20838;-90
2022/03/10 11:35:00;;;;;;;36.70;22.15;;;15.70;93.70;;;;;;5038802;28;20029;-86
2022/03/10 11:37:45;;;;;;;38.05;23.63;;;15.70;94.00;;;;;;5039037;28;20048;-88
2022/03/10 11:40:16;;;;;;;36.67;22.90;;;15.70;93.90;;;;;;5028479;28;20040;-88
2022/03/10 11:42:43;;;;;;;37.35;22.95;;;15.70;94.30;;;;;;5037040;28;20029;-85
2022/03/10 11:45:19;;;;;;;37.80;23.13;;;15.80;93.60;;;;;;5043601;28;20018;-80
2022/03/10 11:47:47;;;;;;;37.03;22.92;;;15.80;94.30;;;;;;5026461;28;20083;-82
2022/03/10 11:50:22;;;;;;;33.85;21.45;;;15.80;93.20;;;;;;5037860;28;20021;-86
2022/03/10 11:53:02;;;;;;;33.83;21.70;;;15.90;93.40;;;;;;5053573;28;20520;-89
2022/03/10 11:55:57;;;;;;;37.20;20.33;;;15.90;95.20;;;;;;5045788;28;20029;-87
2022/03/10 11:58:36;;;;;;;29.52;20.02;;;16.00;93.70;;;;;;5039138;28;20042;-81
2022/03/10 12:01:03;;;;;;;36.35;20.73;;;15.90;92.60;;;;;;5030348;28;20086;-80
2022/03/10 12:03:35;;;;;;;36.90;20.50;;;16.00;93.40;;;;;;5028240;28;20030;-81
2022/03/10 12:06:02;;;;;;;;;;;16.00;93.90;;;;;;5036127;28;20461;-78
2022/03/10 12:08:30;;;;;;;34.88;20.60;;;16.10;93.10;;;;;;5050039;28;19905;-79
2022/03/10 12:11:00;;;;;;;33.78;21.65;;;16.30;93.10;;;;;;5026399;28;20018;-80
2022/03/10 12:13:35;;;;;;;32.85;20.45;;;16.40;93.60;;;;;;5042038;28;20086;-81
2022/03/10 12:16:06;;;;;;;41.78;22.40;;;16.40;93.10;;;;;;5041122;28;20021;-84
2022/03/10 12:18:38;;;;;;;33.42;20.75;;;16.50;92.60;;;;;;5031819;28;20022;-84
2022/03/10 12:21:22;;;;;;;39.60;20.83;;;16.50;92.60;;;;;;5039384;28;20111;-84
2022/03/10 12:24:04;;;;;;;33.72;20.27;;;16.60;93.50;;;;;;5049745;28;20017;-84
2022/03/10 12:26:43;;;;;;;36.80;20.42;;;16.60;92.60;;;;;;5028933;28;20146;-87
2022/03/10 12:29:12;;;;;;;34.60;21.92;;;16.60;91.50;;;;;;5040164;28;20057;-88
2022/03/10 12:31:39;;;;;;;32.25;20.95;;;16.60;92.60;;;;;;5027429;28;20018;-88
2022/03/10 12:34:13;;;;;;;35.67;21.60;;;16.70;92.70;;;;;;5035164;28;20025;-83
2022/03/10 12:36:51;;;;;;;37.25;21.80;;;16.70;92.20;;;;;;5031922;28;20017;-85
2022/03/10 12:39:18;;;;;;;32.15;20.17;;;16.80;92.50;;;;;;5023501;28;20045;-85
2022/03/10 12:41:48;;;;;;;30.55;18.50;;;16.80;92.20;;;;;;5039398;28;20163;-87
2022/03/10 12:44:20;;;;;;;30.88;17.58;;;16.70;91.50;;;;;;5044802;28;20026;-87